Terminal Aerodrome Forecast
Issued by NWS Knoxville/Tri Cities, TN

Home | Current Version | Previous Version | Text Only | Print | Product List | Glossary On
Versions: 1 2 3 4 5 6 7 8 9 10 11 12 13 14 15 16 17 18 19 20 21 22
000
FTUS44 KMRX 242323
TAFTRI
TAF
KTRI 242323Z 2500/2524 18007KT P6SM SCT040 BKN250
     FM250600 20009KT P6SM VCTS BKN050CB OVC100
     FM250800 23008KT 6SM -TSRA BR OVC035CB
     FM251200 24010KT P6SM -RA OVC025
     FM251500 24012G22KT P6SM OVC015
     FM251800 26020G28KT P6SM OVC025
     FM252100 27015KT P6SM OVC050=

USA.gov is the U.S. government's official web portal to all federal, state and local government web resources and services.